sensor_id;sensor_type;location;lat;lon;timestamp;pressure;altitude;pressure_sealevel;temperature;humidity
77227;BME280;66234;47.642;19.144;2023-04-21T00:00:55;100289.19;;;9.97;69.40
77227;BME280;66234;47.642;19.144;2023-04-21T00:03:57;100288.16;;;9.98;69.17
77227;BME280;66234;47.642;19.144;2023-04-21T00:07:01;100292.47;;;9.99;69.03
77227;BME280;66234;47.642;19.144;2023-04-21T00:10:07;100285.28;;;10.00;69.17
77227;BME280;66234;47.642;19.144;2023-04-21T00:13:10;100280.16;;;9.98;69.10
77227;BME280;66234;47.642;19.144;2023-04-21T00:16:12;100283.84;;;9.97;68.91
77227;BME280;66234;47.642;19.144;2023-04-21T00:19:15;100282.41;;;9.95;69.08
77227;BME280;66234;47.642;19.144;2023-04-21T00:22:18;100283.44;;;9.94;69.35
77227;BME280;66234;47.642;19.144;2023-04-21T00:25:21;100283.03;;;9.97;68.79
77227;BME280;66234;47.642;19.144;2023-04-21T00:28:24;100278.31;;;9.99;69.14
77227;BME280;66234;47.642;19.144;2023-04-21T00:31:27;100269.66;;;9.97;69.21
77227;BME280;66234;47.642;19.144;2023-04-21T00:34:32;100273.38;;;9.96;69.11
77227;BME280;66234;47.642;19.144;2023-04-21T00:37:34;100270.09;;;9.94;69.00
77227;BME280;66234;47.642;19.144;2023-04-21T00:40:38;100272.75;;;9.94;69.44
77227;BME280;66234;47.642;19.144;2023-04-21T00:47:02;100270.91;;;9.94;69.28
77227;BME280;66234;47.642;19.144;2023-04-21T00:50:05;100266.81;;;9.98;68.56
77227;BME280;66234;47.642;19.144;2023-04-21T00:53:08;100269.47;;;9.98;68.80
77227;BME280;66234;47.642;19.144;2023-04-21T00:56:11;100266.16;;;9.96;69.04
77227;BME280;66234;47.642;19.144;2023-04-21T00:59:14;100267.00;;;9.97;68.77
77227;BME280;66234;47.642;19.144;2023-04-21T01:02:17;100272.75;;;9.94;68.76
77227;BME280;66234;47.642;19.144;2023-04-21T01:05:22;100271.13;;;9.93;69.03
77227;BME280;66234;47.642;19.144;2023-04-21T01:08:25;100274.38;;;9.88;68.71
77227;BME280;66234;47.642;19.144;2023-04-21T01:11:28;100265.53;;;9.81;68.79
77227;BME280;66234;47.642;19.144;2023-04-21T01:14:31;100265.94;;;9.78;69.28
77227;BME280;66234;47.642;19.144;2023-04-21T01:17:33;100263.88;;;9.74;69.15
77227;BME280;66234;47.642;19.144;2023-04-21T01:20:41;100260.38;;;9.73;68.92
77227;BME280;66234;47.642;19.144;2023-04-21T01:23:43;100261.41;;;9.72;69.14
77227;BME280;66234;47.642;19.144;2023-04-21T01:26:46;100258.50;;;9.67;68.91
77227;BME280;66234;47.642;19.144;2023-04-21T01:29:51;100254.78;;;9.68;68.89
77227;BME280;66234;47.642;19.144;2023-04-21T01:32:54;100254.59;;;9.70;68.39
77227;BME280;66234;47.642;19.144;2023-04-21T01:35:57;100253.19;;;9.74;68.13
77227;BME280;66234;47.642;19.144;2023-04-21T01:39:02;100252.56;;;9.72;68.66
77227;BME280;66234;47.642;19.144;2023-04-21T01:42:06;100259.97;;;9.76;68.20
77227;BME280;66234;47.642;19.144;2023-04-21T01:45:10;100257.28;;;9.76;68.13
77227;BME280;66234;47.642;19.144;2023-04-21T01:48:13;100257.50;;;9.75;67.88
77227;BME280;66234;47.642;19.144;2023-04-21T01:51:15;100256.50;;;9.76;67.69
77227;BME280;66234;47.642;19.144;2023-04-21T01:54:18;100255.44;;;9.77;67.78
77227;BME280;66234;47.642;19.144;2023-04-21T01:57:21;100263.50;;;9.83;67.28
77227;BME280;66234;47.642;19.144;2023-04-21T02:00:26;100258.75;;;9.85;67.27
77227;BME280;66234;47.642;19.144;2023-04-21T02:03:28;100259.56;;;9.86;66.91
77227;BME280;66234;47.642;19.144;2023-04-21T02:06:31;100256.28;;;9.84;67.32
77227;BME280;66234;47.642;19.144;2023-04-21T02:09:34;100253.22;;;9.80;67.28
77227;BME280;66234;47.642;19.144;2023-04-21T02:12:37;100254.41;;;9.78;67.11
77227;BME280;66234;47.642;19.144;2023-04-21T02:15:40;100263.22;;;9.72;67.36
77227;BME280;66234;47.642;19.144;2023-04-21T02:18:43;100257.47;;;9.68;67.44
77227;BME280;66234;47.642;19.144;2023-04-21T02:21:46;100257.06;;;9.65;67.41
77227;BME280;66234;47.642;19.144;2023-04-21T02:24:49;100253.78;;;9.63;67.18
77227;BME280;66234;47.642;19.144;2023-04-21T02:27:53;100254.59;;;9.63;67.34
77227;BME280;66234;47.642;19.144;2023-04-21T02:30:56;100256.03;;;9.66;66.86
77227;BME280;66234;47.642;19.144;2023-04-21T02:33:59;100259.75;;;9.65;66.99
77227;BME280;66234;47.642;19.144;2023-04-21T02:37:02;100260.94;;;9.62;67.14
77227;BME280;66234;47.642;19.144;2023-04-21T02:40:05;100263.81;;;9.61;67.01
77227;BME280;66234;47.642;19.144;2023-04-21T02:43:09;100268.75;;;9.57;66.99
77227;BME280;66234;47.642;19.144;2023-04-21T02:46:11;100270.34;;;9.52;67.41
77227;BME280;66234;47.642;19.144;2023-04-21T02:49:15;100273.63;;;9.47;67.29
77227;BME280;66234;47.642;19.144;2023-04-21T02:52:17;100278.72;;;9.42;67.44
77227;BME280;66234;47.642;19.144;2023-04-21T02:55:20;100272.13;;;9.32;67.71
77227;BME280;66234;47.642;19.144;2023-04-21T02:58:24;100278.50;;;9.31;67.97
77227;BME280;66234;47.642;19.144;2023-04-21T03:01:26;100279.03;;;9.20;68.43
77227;BME280;66234;47.642;19.144;2023-04-21T03:04:29;100278.97;;;9.07;68.87
77227;BME280;66234;47.642;19.144;2023-04-21T03:07:33;100280.47;;;8.88;69.79
77227;BME280;66234;47.642;19.144;2023-04-21T03:10:36;100274.28;;;8.81;70.53
77227;BME280;66234;47.642;19.144;2023-04-21T03:13:39;100279.19;;;8.78;70.88
77227;BME280;66234;47.642;19.144;2023-04-21T03:16:44;100286.53;;;8.69;71.44
77227;BME280;66234;47.642;19.144;2023-04-21T03:19:47;100284.44;;;8.65;71.68
77227;BME280;66234;47.642;19.144;2023-04-21T03:22:52;100292.00;;;8.61;71.87
77227;BME280;66234;47.642;19.144;2023-04-21T03:25:55;100289.66;;;8.52;72.15
77227;BME280;66234;47.642;19.144;2023-04-21T03:28:58;100289.84;;;8.50;72.08
77227;BME280;66234;47.642;19.144;2023-04-21T03:32:01;100287.56;;;8.47;71.78
77227;BME280;66234;47.642;19.144;2023-04-21T03:35:03;100292.31;;;8.52;71.37
77227;BME280;66234;47.642;19.144;2023-04-21T03:38:06;100297.91;;;8.57;71.39
77227;BME280;66234;47.642;19.144;2023-04-21T03:41:10;100295.84;;;8.59;71.16
77227;BME280;66234;47.642;19.144;2023-04-21T03:44:12;100296.69;;;8.59;70.87
77227;BME280;66234;47.642;19.144;2023-04-21T03:47:15;100292.47;;;8.71;69.95
77227;BME280;66234;47.642;19.144;2023-04-21T03:50:19;100291.88;;;8.76;70.25
77227;BME280;66234;47.642;19.144;2023-04-21T03:53:22;100298.09;;;8.83;69.27
77227;BME280;66234;47.642;19.144;2023-04-21T03:56:24;100301.22;;;8.93;68.89
77227;BME280;66234;47.642;19.144;2023-04-21T03:59:27;100303.94;;;8.99;69.15
77227;BME280;66234;47.642;19.144;2023-04-21T04:02:29;100305.41;;;9.02;68.72
77227;BME280;66234;47.642;19.144;2023-04-21T04:05:34;100300.47;;;8.99;68.95
77227;BME280;66234;47.642;19.144;2023-04-21T04:08:37;100311.31;;;8.97;69.27
77227;BME280;66234;47.642;19.144;2023-04-21T04:11:40;100310.31;;;8.98;69.44
77227;BME280;66234;47.642;19.144;2023-04-21T04:14:42;100314.16;;;8.96;69.58
77227;BME280;66234;47.642;19.144;2023-04-21T04:17:45;100313.75;;;8.92;69.93
77227;BME280;66234;47.642;19.144;2023-04-21T04:20:48;100319.50;;;8.96;69.70
77227;BME280;66234;47.642;19.144;2023-04-21T04:23:50;100322.03;;;9.04;68.73
77227;BME280;66234;47.642;19.144;2023-04-21T04:26:54;100319.44;;;9.17;68.71
77227;BME280;66234;47.642;19.144;2023-04-21T04:29:59;100326.47;;;9.24;68.40
77227;BME280;66234;47.642;19.144;2023-04-21T04:33:01;100332.06;;;9.29;68.14
77227;BME280;66234;47.642;19.144;2023-04-21T04:36:05;100335.31;;;9.31;68.75
77227;BME280;66234;47.642;19.144;2023-04-21T04:39:08;100339.66;;;9.32;68.51
77227;BME280;66234;47.642;19.144;2023-04-21T04:42:11;100342.31;;;9.32;68.90
77227;BME280;66234;47.642;19.144;2023-04-21T04:45:14;100335.97;;;9.33;69.09
77227;BME280;66234;47.642;19.144;2023-04-21T04:48:18;100335.38;;;9.38;68.49
77227;BME280;66234;47.642;19.144;2023-04-21T04:51:20;100340.31;;;9.41;68.98
77227;BME280;66234;47.642;19.144;2023-04-21T04:54:24;100347.13;;;9.43;68.78
77227;BME280;66234;47.642;19.144;2023-04-21T04:57:27;100347.31;;;9.48;68.67
77227;BME280;66234;47.642;19.144;2023-04-21T05:00:29;100351.50;;;9.57;68.26
77227;BME280;66234;47.642;19.144;2023-04-21T05:03:33;100341.88;;;9.63;67.83
77227;BME280;66234;47.642;19.144;2023-04-21T05:06:35;100352.19;;;9.72;67.20
77227;BME280;66234;47.642;19.144;2023-04-21T05:09:38;100342.97;;;9.81;66.70
77227;BME280;66234;47.642;19.144;2023-04-21T05:12:41;100343.22;;;9.93;66.24
77227;BME280;66234;47.642;19.144;2023-04-21T05:15:43;100338.09;;;9.98;67.30
77227;BME280;66234;47.642;19.144;2023-04-21T05:18:46;100344.34;;;10.12;66.86
77227;BME280;66234;47.642;19.144;2023-04-21T05:21:52;100346.81;;;10.26;66.48
77227;BME280;66234;47.642;19.144;2023-04-21T05:24:55;100344.19;;;10.46;64.76
77227;BME280;66234;47.642;19.144;2023-04-21T05:27:58;100344.63;;;10.62;63.52
77227;BME280;66234;47.642;19.144;2023-04-21T05:31:01;100344.41;;;10.77;63.48
77227;BME280;66234;47.642;19.144;2023-04-21T05:34:03;100352.66;;;10.95;61.94
77227;BME280;66234;47.642;19.144;2023-04-21T05:37:06;100340.06;;;11.08;61.50
77227;BME280;66234;47.642;19.144;2023-04-21T05:40:11;100345.81;;;11.25;61.31
77227;BME280;66234;47.642;19.144;2023-04-21T05:43:14;100347.22;;;11.40;59.43
77227;BME280;66234;47.642;19.144;2023-04-21T05:46:16;100349.84;;;11.53;58.72
77227;BME280;66234;47.642;19.144;2023-04-21T05:49:19;100346.13;;;11.68;56.86
77227;BME280;66234;47.642;19.144;2023-04-21T05:52:22;100355.78;;;11.75;57.47
77227;BME280;66234;47.642;19.144;2023-04-21T05:55:26;100350.78;;;11.85;56.92
77227;BME280;66234;47.642;19.144;2023-04-21T05:58:28;100353.88;;;11.89;56.09
77227;BME280;66234;47.642;19.144;2023-04-21T06:01:31;100347.63;;;12.01;55.66
77227;BME280;66234;47.642;19.144;2023-04-21T06:04:34;100348.00;;;12.11;55.37
77227;BME280;66234;47.642;19.144;2023-04-21T06:07:37;100351.88;;;12.22;55.13
77227;BME280;66234;47.642;19.144;2023-04-21T06:10:40;100349.72;;;12.30;53.16
77227;BME280;66234;47.642;19.144;2023-04-21T06:13:44;100341.88;;;12.35;53.68
77227;BME280;66234;47.642;19.144;2023-04-21T06:16:46;100344.75;;;12.40;53.55
77227;BME280;66234;47.642;19.144;2023-04-21T06:19:49;100340.97;;;12.48;52.83
77227;BME280;66234;47.642;19.144;2023-04-21T06:22:57;100346.53;;;12.46;53.42
77227;BME280;66234;47.642;19.144;2023-04-21T06:26:04;100343.97;;;12.58;53.78
77227;BME280;66234;47.642;19.144;2023-04-21T06:29:08;100341.63;;;12.68;52.37
77227;BME280;66234;47.642;19.144;2023-04-21T06:32:11;100340.94;;;12.79;52.16
77227;BME280;66234;47.642;19.144;2023-04-21T06:35:14;100343.72;;;12.90;51.41
77227;BME280;66234;47.642;19.144;2023-04-21T06:38:17;100337.25;;;12.98;51.29
77227;BME280;66234;47.642;19.144;2023-04-21T06:41:20;100335.38;;;13.05;50.14
77227;BME280;66234;47.642;19.144;2023-04-21T06:44:25;100337.56;;;13.14;51.32
77227;BME280;66234;47.642;19.144;2023-04-21T06:47:29;100330.00;;;13.23;50.24
77227;BME280;66234;47.642;19.144;2023-04-21T06:50:31;100329.94;;;13.30;50.83
77227;BME280;66234;47.642;19.144;2023-04-21T06:53:34;100339.97;;;13.41;49.60
77227;BME280;66234;47.642;19.144;2023-04-21T06:56:38;100331.63;;;13.49;49.40
77227;BME280;66234;47.642;19.144;2023-04-21T06:59:43;100336.31;;;13.53;49.31
77227;BME280;66234;47.642;19.144;2023-04-21T07:02:46;100327.84;;;13.68;49.05
77227;BME280;66234;47.642;19.144;2023-04-21T07:05:49;100339.81;;;13.72;48.86
77227;BME280;66234;47.642;19.144;2023-04-21T07:08:52;100333.16;;;13.74;49.41
77227;BME280;66234;47.642;19.144;2023-04-21T07:11:55;100339.88;;;13.83;49.46
77227;BME280;66234;47.642;19.144;2023-04-21T07:14:57;100338.63;;;13.86;48.54
77227;BME280;66234;47.642;19.144;2023-04-21T07:18:00;100336.34;;;14.01;49.41
77227;BME280;66234;47.642;19.144;2023-04-21T07:21:03;100335.13;;;14.15;47.72
77227;BME280;66234;47.642;19.144;2023-04-21T07:24:06;100334.28;;;14.14;46.42
77227;BME280;66234;47.642;19.144;2023-04-21T07:27:08;100325.91;;;14.22;47.25
77227;BME280;66234;47.642;19.144;2023-04-21T07:30:11;100325.41;;;14.43;46.55
77227;BME280;66234;47.642;19.144;2023-04-21T07:33:14;100328.97;;;14.55;46.08
77227;BME280;66234;47.642;19.144;2023-04-21T07:36:18;100329.19;;;14.54;45.59
77227;BME280;66234;47.642;19.144;2023-04-21T07:39:22;100322.56;;;14.79;44.55
77227;BME280;66234;47.642;19.144;2023-04-21T07:42:25;100330.19;;;14.94;43.78
77227;BME280;66234;47.642;19.144;2023-04-21T07:45:28;100326.88;;;15.04;42.33
77227;BME280;66234;47.642;19.144;2023-04-21T07:48:31;100314.13;;;14.99;43.92
77227;BME280;66234;47.642;19.144;2023-04-21T07:51:34;100324.00;;;15.05;44.92
77227;BME280;66234;47.642;19.144;2023-04-21T07:54:37;100317.88;;;15.21;43.40
77227;BME280;66234;47.642;19.144;2023-04-21T07:57:39;100319.75;;;15.21;42.86
77227;BME280;66234;47.642;19.144;2023-04-21T08:00:42;100318.69;;;15.33;43.68
77227;BME280;66234;47.642;19.144;2023-04-21T08:03:46;100319.28;;;15.35;43.40
77227;BME280;66234;47.642;19.144;2023-04-21T08:06:50;100318.38;;;15.41;42.93
77227;BME280;66234;47.642;19.144;2023-04-21T08:09:53;100317.88;;;15.44;42.49
77227;BME280;66234;47.642;19.144;2023-04-21T08:12:56;100313.56;;;15.43;43.96
77227;BME280;66234;47.642;19.144;2023-04-21T08:15:58;100306.97;;;15.51;42.74
77227;BME280;66234;47.642;19.144;2023-04-21T08:19:01;100315.63;;;15.64;40.46
77227;BME280;66234;47.642;19.144;2023-04-21T08:22:04;100316.78;;;15.68;41.67
77227;BME280;66234;47.642;19.144;2023-04-21T08:25:06;100310.47;;;15.63;40.86
77227;BME280;66234;47.642;19.144;2023-04-21T08:28:09;100314.34;;;15.95;39.66
77227;BME280;66234;47.642;19.144;2023-04-21T08:31:12;100316.03;;;16.12;40.15
77227;BME280;66234;47.642;19.144;2023-04-21T08:34:23;100312.47;;;16.23;40.15
77227;BME280;66234;47.642;19.144;2023-04-21T08:37:29;100312.97;;;16.20;41.04
77227;BME280;66234;47.642;19.144;2023-04-21T08:40:33;100309.38;;;16.15;39.40
77227;BME280;66234;47.642;19.144;2023-04-21T08:43:37;100307.97;;;16.29;41.54
77227;BME280;66234;47.642;19.144;2023-04-21T08:46:40;100306.41;;;16.44;40.73
77227;BME280;66234;47.642;19.144;2023-04-21T08:49:44;100303.31;;;16.53;41.21
77227;BME280;66234;47.642;19.144;2023-04-21T08:52:49;100299.06;;;16.57;40.17
77227;BME280;66234;47.642;19.144;2023-04-21T08:55:54;100301.03;;;16.78;38.66
77227;BME280;66234;47.642;19.144;2023-04-21T08:59:12;100298.00;;;16.91;39.05
77227;BME280;66234;47.642;19.144;2023-04-21T09:02:18;100301.31;;;17.14;38.88
77227;BME280;66234;47.642;19.144;2023-04-21T09:05:34;100294.28;;;17.13;39.20
77227;BME280;66234;47.642;19.144;2023-04-21T09:09:55;100290.66;;;17.24;38.36
77227;BME280;66234;47.642;19.144;2023-04-21T09:12:58;100294.75;;;17.27;38.77
77227;BME280;66234;47.642;19.144;2023-04-21T09:16:03;100292.88;;;17.27;37.22
77227;BME280;66234;47.642;19.144;2023-04-21T09:19:15;100293.06;;;17.42;39.30
77227;BME280;66234;47.642;19.144;2023-04-21T09:22:18;100291.09;;;17.54;38.34
77227;BME280;66234;47.642;19.144;2023-04-21T09:25:21;100290.78;;;17.51;37.45
77227;BME280;66234;47.642;19.144;2023-04-21T09:28:30;100283.06;;;17.43;37.73
77227;BME280;66234;47.642;19.144;2023-04-21T09:31:34;100267.50;;;17.50;38.24
77227;BME280;66234;47.642;19.144;2023-04-21T09:34:40;100271.91;;;17.56;38.53
77227;BME280;66234;47.642;19.144;2023-04-21T09:37:47;100274.06;;;17.75;37.76
77227;BME280;66234;47.642;19.144;2023-04-21T09:40:59;100276.34;;;17.62;38.27
77227;BME280;66234;47.642;19.144;2023-04-21T09:44:01;100266.63;;;17.66;37.96
77227;BME280;66234;47.642;19.144;2023-04-21T09:47:09;100258.13;;;17.79;37.87
77227;BME280;66234;47.642;19.144;2023-04-21T09:50:14;100266.09;;;17.90;38.89
77227;BME280;66234;47.642;19.144;2023-04-21T09:53:20;100268.38;;;17.77;37.72
77227;BME280;66234;47.642;19.144;2023-04-21T09:56:28;100259.97;;;17.52;38.71
77227;BME280;66234;47.642;19.144;2023-04-21T09:59:39;100259.69;;;17.75;38.66
77227;BME280;66234;47.642;19.144;2023-04-21T10:02:47;100247.72;;;17.92;39.37
77227;BME280;66234;47.642;19.144;2023-04-21T10:05:51;100255.88;;;17.71;39.85
77227;BME280;66234;47.642;19.144;2023-04-21T10:08:56;100243.63;;;18.17;36.52
77227;BME280;66234;47.642;19.144;2023-04-21T10:12:00;100253.28;;;18.34;37.09
77227;BME280;66234;47.642;19.144;2023-04-21T10:15:04;100239.59;;;18.46;36.02
77227;BME280;66234;47.642;19.144;2023-04-21T10:18:16;100253.94;;;18.46;36.81
77227;BME280;66234;47.642;19.144;2023-04-21T10:21:20;100247.16;;;18.44;37.95
77227;BME280;66234;47.642;19.144;2023-04-21T10:24:27;100246.59;;;18.73;37.48
77227;BME280;66234;47.642;19.144;2023-04-21T10:27:34;100236.19;;;18.60;35.97
77227;BME280;66234;47.642;19.144;2023-04-21T10:30:37;100231.44;;;18.77;36.20
77227;BME280;66234;47.642;19.144;2023-04-21T10:33:40;100233.25;;;19.55;38.18
77227;BME280;66234;47.642;19.144;2023-04-21T10:36:49;100232.19;;;19.61;34.35
77227;BME280;66234;47.642;19.144;2023-04-21T10:39:54;100230.56;;;19.65;34.21
77227;BME280;66234;47.642;19.144;2023-04-21T10:42:57;100226.13;;;19.39;35.82
77227;BME280;66234;47.642;19.144;2023-04-21T10:49:39;100218.59;;;18.99;35.27
77227;BME280;66234;47.642;19.144;2023-04-21T10:53:06;100216.47;;;19.11;34.93
77227;BME280;66234;47.642;19.144;2023-04-21T10:56:06;100215.63;;;19.06;34.32
77227;BME280;66234;47.642;19.144;2023-04-21T10:59:09;100208.47;;;18.85;34.30
77227;BME280;66234;47.642;19.144;2023-04-21T11:05:15;100207.50;;;18.64;34.70
77227;BME280;66234;47.642;19.144;2023-04-21T11:08:17;100208.84;;;18.62;35.39
77227;BME280;66234;47.642;19.144;2023-04-21T11:11:21;100210.72;;;18.61;35.14
77227;BME280;66234;47.642;19.144;2023-04-21T11:14:28;100207.25;;;18.66;36.72
77227;BME280;66234;47.642;19.144;2023-04-21T11:17:31;100200.81;;;18.72;34.79
77227;BME280;66234;47.642;19.144;2023-04-21T11:20:38;100202.47;;;18.83;36.56
77227;BME280;66234;47.642;19.144;2023-04-21T11:23:47;100199.56;;;18.94;37.25
77227;BME280;66234;47.642;19.144;2023-04-21T11:26:50;100202.88;;;19.06;36.11
77227;BME280;66234;47.642;19.144;2023-04-21T11:29:53;100200.16;;;19.01;33.77
77227;BME280;66234;47.642;19.144;2023-04-21T11:32:56;100192.81;;;18.97;33.82
77227;BME280;66234;47.642;19.144;2023-04-21T11:36:02;100191.44;;;18.94;34.42
77227;BME280;66234;47.642;19.144;2023-04-21T11:39:12;100189.28;;;18.91;35.22
77227;BME280;66234;47.642;19.144;2023-04-21T11:42:21;100195.13;;;19.25;36.03
77227;BME280;66234;47.642;19.144;2023-04-21T11:45:24;100198.56;;;19.72;33.28
77227;BME280;66234;47.642;19.144;2023-04-21T11:48:28;100191.56;;;20.06;32.88
77227;BME280;66234;47.642;19.144;2023-04-21T11:51:38;100174.47;;;20.41;31.19
77227;BME280;66234;47.642;19.144;2023-04-21T11:54:41;100175.78;;;20.83;31.07
77227;BME280;66234;47.642;19.144;2023-04-21T11:57:43;100179.56;;;21.02;30.82
77227;BME280;66234;47.642;19.144;2023-04-21T12:00:46;100174.09;;;21.07;30.92
77227;BME280;66234;47.642;19.144;2023-04-21T12:03:52;100180.09;;;21.09;31.88
77227;BME280;66234;47.642;19.144;2023-04-21T12:07:01;100178.69;;;21.22;30.12
77227;BME280;66234;47.642;19.144;2023-04-21T12:10:09;100172.16;;;21.18;29.35
77227;BME280;66234;47.642;19.144;2023-04-21T12:13:22;100180.66;;;20.91;29.64
77227;BME280;66234;47.642;19.144;2023-04-21T12:16:26;100173.91;;;20.79;30.71
77227;BME280;66234;47.642;19.144;2023-04-21T12:19:41;100169.53;;;20.93;30.97
77227;BME280;66234;47.642;19.144;2023-04-21T12:22:44;100165.97;;;21.02;30.47
77227;BME280;66234;47.642;19.144;2023-04-21T12:25:48;100168.47;;;20.74;30.01
77227;BME280;66234;47.642;19.144;2023-04-21T12:28:52;100166.34;;;20.51;30.34
77227;BME280;66234;47.642;19.144;2023-04-21T12:31:55;100162.28;;;20.38;30.36
77227;BME280;66234;47.642;19.144;2023-04-21T12:34:57;100168.25;;;20.25;30.72
77227;BME280;66234;47.642;19.144;2023-04-21T12:38:02;100162.25;;;20.08;34.19
77227;BME280;66234;47.642;19.144;2023-04-21T12:41:04;100166.63;;;20.24;31.31
77227;BME280;66234;47.642;19.144;2023-04-21T12:44:07;100165.56;;;20.20;31.68
77227;BME280;66234;47.642;19.144;2023-04-21T12:47:10;100161.19;;;20.09;32.04
77227;BME280;66234;47.642;19.144;2023-04-21T12:50:12;100169.56;;;20.03;32.22
77227;BME280;66234;47.642;19.144;2023-04-21T12:53:15;100158.16;;;20.01;32.88
77227;BME280;66234;47.642;19.144;2023-04-21T12:56:18;100163.59;;;20.01;32.97
77227;BME280;66234;47.642;19.144;2023-04-21T12:59:21;100158.72;;;20.03;32.09
77227;BME280;66234;47.642;19.144;2023-04-21T13:02:23;100154.66;;;20.00;32.45
77227;BME280;66234;47.642;19.144;2023-04-21T13:05:26;100147.31;;;20.11;31.60
77227;BME280;66234;47.642;19.144;2023-04-21T13:08:29;100149.47;;;20.04;31.38
77227;BME280;66234;47.642;19.144;2023-04-21T13:11:32;100148.16;;;20.16;32.98
77227;BME280;66234;47.642;19.144;2023-04-21T13:14:34;100149.53;;;20.34;31.50
77227;BME280;66234;47.642;19.144;2023-04-21T13:17:37;100144.09;;;20.39;30.96
77227;BME280;66234;47.642;19.144;2023-04-21T13:20:40;100141.91;;;20.36;32.25
77227;BME280;66234;47.642;19.144;2023-04-21T13:23:43;100145.16;;;20.03;31.55
77227;BME280;66234;47.642;19.144;2023-04-21T13:26:45;100135.94;;;20.29;31.76
77227;BME280;66234;47.642;19.144;2023-04-21T13:29:48;100138.38;;;20.40;32.52
77227;BME280;66234;47.642;19.144;2023-04-21T13:32:51;100137.56;;;20.40;32.04
77227;BME280;66234;47.642;19.144;2023-04-21T13:35:54;100131.03;;;20.51;31.81
77227;BME280;66234;47.642;19.144;2023-04-21T13:38:58;100133.75;;;20.51;30.78
77227;BME280;66234;47.642;19.144;2023-04-21T13:42:01;100130.44;;;20.64;31.42
77227;BME280;66234;47.642;19.144;2023-04-21T13:45:05;100131.56;;;19.93;32.19
77227;BME280;66234;47.642;19.144;2023-04-21T13:48:08;100121.25;;;20.40;31.48
77227;BME280;66234;47.642;19.144;2023-04-21T13:51:11;100122.31;;;20.59;31.69
77227;BME280;66234;47.642;19.144;2023-04-21T13:54:13;100122.81;;;20.71;31.13
77227;BME280;66234;47.642;19.144;2023-04-21T13:57:17;100118.19;;;20.76;30.43
77227;BME280;66234;47.642;19.144;2023-04-21T14:00:20;100110.25;;;20.90;30.22
77227;BME280;66234;47.642;19.144;2023-04-21T14:03:23;100109.41;;;21.09;29.41
77227;BME280;66234;47.642;19.144;2023-04-21T14:06:26;100104.72;;;23.49;26.95
77227;BME280;66234;47.642;19.144;2023-04-21T14:09:29;100086.22;;;23.04;26.93
77227;BME280;66234;47.642;19.144;2023-04-21T14:12:32;100095.16;;;23.33;26.48
77227;BME280;66234;47.642;19.144;2023-04-21T14:15:35;100095.75;;;23.30;26.22
77227;BME280;66234;47.642;19.144;2023-04-21T14:18:37;100084.28;;;22.05;27.88
77227;BME280;66234;47.642;19.144;2023-04-21T14:21:45;100083.13;;;22.39;27.98
77227;BME280;66234;47.642;19.144;2023-04-21T14:24:49;100084.50;;;22.89;27.02
77227;BME280;66234;47.642;19.144;2023-04-21T14:27:51;100086.56;;;23.76;25.75
77227;BME280;66234;47.642;19.144;2023-04-21T14:30:54;100086.41;;;25.18;23.78
77227;BME280;66234;47.642;19.144;2023-04-21T14:33:57;100074.38;;;26.21;22.04
77227;BME280;66234;47.642;19.144;2023-04-21T14:36:59;100075.94;;;27.31;21.17
77227;BME280;66234;47.642;19.144;2023-04-21T14:40:02;100075.34;;;26.95;21.34
77227;BME280;66234;47.642;19.144;2023-04-21T14:43:05;100073.09;;;26.97;22.19
77227;BME280;66234;47.642;19.144;2023-04-21T14:46:08;100068.13;;;27.07;21.12
77227;BME280;66234;47.642;19.144;2023-04-21T14:49:10;100059.28;;;27.79;20.48
77227;BME280;66234;47.642;19.144;2023-04-21T14:52:13;100066.59;;;27.58;21.16
77227;BME280;66234;47.642;19.144;2023-04-21T14:55:16;100054.38;;;28.27;19.46
77227;BME280;66234;47.642;19.144;2023-04-21T14:58:19;100061.13;;;28.46;19.62
77227;BME280;66234;47.642;19.144;2023-04-21T15:01:22;100060.16;;;28.42;19.08
77227;BME280;66234;47.642;19.144;2023-04-21T15:04:27;100052.53;;;27.59;19.82
77227;BME280;66234;47.642;19.144;2023-04-21T15:07:30;100046.53;;;27.74;19.54
77227;BME280;66234;47.642;19.144;2023-04-21T15:10:32;100051.38;;;27.60;19.70
77227;BME280;66234;47.642;19.144;2023-04-21T15:13:35;100048.16;;;27.75;19.66
77227;BME280;66234;47.642;19.144;2023-04-21T15:16:38;100044.44;;;27.71;20.19
77227;BME280;66234;47.642;19.144;2023-04-21T15:19:41;100045.81;;;26.53;21.38
77227;BME280;66234;47.642;19.144;2023-04-21T15:22:43;100043.63;;;27.28;20.74
77227;BME280;66234;47.642;19.144;2023-04-21T15:25:46;100039.59;;;27.77;19.78
77227;BME280;66234;47.642;19.144;2023-04-21T15:28:48;100039.44;;;27.90;19.62
77227;BME280;66234;47.642;19.144;2023-04-21T15:31:51;100030.72;;;28.34;19.30
77227;BME280;66234;47.642;19.144;2023-04-21T15:34:54;100027.56;;;28.15;19.19
77227;BME280;66234;47.642;19.144;2023-04-21T15:37:56;100029.25;;;27.91;20.35
77227;BME280;66234;47.642;19.144;2023-04-21T15:40:59;100034.44;;;27.50;19.54
77227;BME280;66234;47.642;19.144;2023-04-21T15:44:03;100028.75;;;27.97;19.81
77227;BME280;66234;47.642;19.144;2023-04-21T15:47:06;100031.28;;;26.44;20.77
77227;BME280;66234;47.642;19.144;2023-04-21T15:50:09;100032.03;;;25.61;21.87
77227;BME280;66234;47.642;19.144;2023-04-21T15:53:13;100023.91;;;24.85;22.69
77227;BME280;66234;47.642;19.144;2023-04-21T15:56:16;100026.75;;;23.61;24.65
77227;BME280;66234;47.642;19.144;2023-04-21T15:59:19;100032.75;;;23.26;25.07
77227;BME280;66234;47.642;19.144;2023-04-21T16:02:25;100019.41;;;24.07;24.51